Airfield :
LOGIN :

Register | Disclaimer

   EN    FR    IT 

 










Legend :    VFR   Marginal VFR   IFR   Intensive IFR   Very Intensive IFR
Visi :
Ceiling :
>= 8 km
>= 3000ft
5 to 8 km
1000 to 3000 ft
1500m to 5 km
500 to 1000 ft
800 to 1500m
200 to 500 ft
< 800m
< 200 ft
Symbols :   Thunderstorms  Fog  Heavy snow  Heavy precipitations  Wind > 20 kt
SIGMETs :     Misc.  Thunderstorms  Icing  Turbulence  Mountain Waves  Volcanic Ashes







- Airport Elevation : 794 ft


LKCV - Čáslav Air Base

CURRENT METAR :
  • 180513Z VRB01KT 3000 BR NSC 04/03 Q1019 RMK YLO

EXPIRED METARs :
  • 180500Z 12002KT 4000 BR NSC 06/05 Q1019 NOSIG RMK GRN GRN
  • 180400Z 13003KT 7000 NSC 07/06 Q1019 NOSIG RMK WHT WHT
  • 180300Z VRB01KT 7000 NSC 08/07 Q1019 NOSIG RMK WHT WHT

TAF TAF LKCV
Valid from the 18 at 00:00 until the 19 at 00:00 UTC


172300Z 1800/1900 11004KT CAVOK
TEMPO 1802/1804 7000 BR NSC
TEMPO 1803/1807 VRB02KT 2000 BR SCT008
PROB30
TEMPO 1804/1807 0800 FG SCT005
BECMG 1810/1812 02004KT CAVOK
No reported NOTAMs for that airfield.



MET'MAP, your aeronautical weather chart ! - Copyright ORBIFLY December 2007 - Disclaimer

ORBIFLY MET'MAP TEAM :

Programming & Development : Alexandra Zaïnal
Concept & Development : Baudouin d'Aumeries
Co-Development & Prog : Marc-Olivier Méhu
Technical & hardware support : Manuel Goepfert

Contact : metmap@orbifly.com




SOURCES & CREDITS :

   NOAA